Tune, Denmark
Current Conditions -  °F | °C
As of 5:50 AM on Tuesday 21 Oct 2014 (Local Time) from EKRK Reporting Station
Haze Haze  
Wind Chill: 45°   Ceiling: Unl
Heat Index: 48°   Visibility: 0.68mi
Dew Point: 48°   Wind: 7mph
Humidity: 100%   Direction: 230°SW
Pressure: 29.68"   Gusts: NA
Location:  55.6°N, 12.18°E
Report Text: EKRK 210350Z AUTO 23006KT 1100NDV R11/P1500N R29/P1500NBR FEW002/// 09/09 Q1005
Loading
Personal Weather Stations






























Interactive Weather Map New forecast layout! Learn more

10-Day Weather Forecast

Advertisements
Track Severe Weather on mobile